Time;durP1;ratioP1;P1;durP2;ratioP2;P2;SDS_P1;SDS_P2;PMS_P1;PMS_P2;Temp;Humidity;BMP_temperature;BMP_pressure;BME280_temperature;BME280_humidity;BME280_pressure;Samples;Min_cycle;Max_cycle;Signal;HPM_P1;HPM_P2
2022/04/15 02:05:51;;;;;;;6.65;2.10;;;19.80;63.80;;;;;;6127201;22;2968075;-69
2022/04/15 02:08:17;;;;;;;6.30;2.17;;;19.80;63.80;;;;;;6182823;23;20040;-69
2022/04/15 04:01:31;;;;;;;7.07;2.05;;;19.30;61.70;;;;;;5619162;22;15852923;-70
2022/04/15 04:03:57;;;;;;;7.18;2.78;;;19.20;62.60;;;;;;6307882;22;20477;-66
2022/04/15 04:06:24;;;;;;;11.90;2.80;;;19.20;62.40;;;;;;6309753;22;20067;-67
2022/04/15 04:08:53;;;;;;;13.35;2.58;;;19.20;62.70;;;;;;6283148;22;20094;-67
2022/04/15 04:11:21;;;;;;;17.35;2.90;;;19.20;63.00;;;;;;6282322;22;20339;-67
2022/04/15 04:13:47;;;;;;;19.52;2.50;;;19.20;63.10;;;;;;6308916;22;20377;-67
2022/04/15 04:16:14;;;;;;;38.00;5.55;;;19.20;63.50;;;;;;6302722;22;20062;-68
2022/04/15 04:25:25;;;;;;;25.00;3.30;;;19.20;64.10;;;;;;6303393;22;20321;-65
2022/04/15 04:27:51;;;;;;;14.65;3.08;;;19.20;64.70;;;;;;6303982;22;20015;-66
2022/04/15 04:30:57;;;;;;;17.33;3.22;;;19.20;65.10;;;;;;6302738;22;20003;-66
2022/04/15 04:34:03;;;;;;;18.23;2.85;;;19.20;65.50;;;;;;6303256;22;20011;-66
2022/04/15 04:37:09;;;;;;;19.33;4.15;;;19.10;66.30;;;;;;6304108;22;20010;-67
2022/04/15 04:40:15;;;;;;;22.90;13.40;;;19.10;66.20;;;;;;6304306;22;20470;-67
2022/04/15 04:43:22;;;;;;;19.67;6.00;;;19.10;65.90;;;;;;6302712;22;20007;-67
2022/04/15 04:46:28;;;;;;;8.32;3.53;;;19.10;65.90;;;;;;6302034;22;20480;-66
2022/04/15 04:49:34;;;;;;;13.05;3.08;;;19.00;65.90;;;;;;6302220;22;20006;-67
2022/04/15 04:52:40;;;;;;;13.15;2.38;;;19.10;65.90;;;;;;6300238;22;20007;-67
2022/04/15 04:55:46;;;;;;;17.38;3.55;;;19.00;66.30;;;;;;6300576;22;20460;-67
2022/04/15 04:58:52;;;;;;;16.38;2.10;;;19.10;66.30;;;;;;6302055;22;20009;-67
2022/04/15 05:01:59;;;;;;;19.02;3.13;;;19.10;66.20;;;;;;6301565;22;20652;-67
2022/04/15 05:05:05;;;;;;;21.08;3.50;;;19.00;66.10;;;;;;6300586;22;20015;-67
2022/04/15 05:07:51;;;;;;;;;;;19.00;66.50;;;;;;6302199;22;20398;-68
2022/04/15 05:10:57;;;;;;;15.35;2.10;;;19.00;66.80;;;;;;6301346;22;19903;-69
2022/04/15 05:14:03;;;;;;;8.75;1.80;;;19.00;66.50;;;;;;6300245;22;20311;-68
2022/04/15 05:17:09;;;;;;;7.68;1.83;;;19.00;66.30;;;;;;6300562;22;20000;-66
2022/04/15 05:20:15;;;;;;;9.05;2.25;;;19.10;66.20;;;;;;6301625;22;20102;-68
2022/04/15 05:23:21;;;;;;;13.05;3.03;;;19.00;65.90;;;;;;6301117;22;20456;-67
2022/04/15 05:26:29;;;;;;;25.85;18.17;;;19.00;65.60;;;;;;6297522;22;20003;-67
2022/04/15 05:29:35;;;;;;;36.00;25.60;;;19.00;66.10;;;;;;6299805;22;20003;-67
2022/04/15 05:32:41;;;;;;;18.05;10.35;;;19.00;65.30;;;;;;6299327;22;20023;-67
2022/04/15 05:35:50;;;;;;;12.23;4.50;;;19.00;65.50;;;;;;6298198;22;20000;-67
2022/04/15 05:38:56;;;;;;;7.72;2.58;;;19.00;65.40;;;;;;6299341;22;20482;-67
2022/04/15 05:42:02;;;;;;;6.65;3.17;;;19.00;65.30;;;;;;6272155;22;20004;-68
2022/04/15 05:45:08;;;;;;;10.13;2.15;;;19.00;65.10;;;;;;6298714;22;20015;-67
2022/04/15 05:48:14;;;;;;;9.77;2.28;;;19.00;64.90;;;;;;6297920;22;20003;-67
2022/04/15 05:51:20;;;;;;;12.20;4.20;;;19.00;64.60;;;;;;6299283;22;19999;-67
2022/04/15 05:54:26;;;;;;;3.72;1.80;;;19.00;64.50;;;;;;6299550;22;20102;-69
2022/04/15 05:57:32;;;;;;;7.47;2.28;;;19.00;64.50;;;;;;6269766;22;20203;-70
2022/04/15 05:59:59;;;;;;;15.48;2.75;;;19.00;64.40;;;;;;6297635;22;20074;-68
2022/04/15 06:02:25;;;;;;;5.68;2.10;;;19.00;64.40;;;;;;6299695;22;19999;-69
2022/04/15 06:04:52;;;;;;;26.27;2.42;;;19.00;64.40;;;;;;6298033;22;20668;-69
2022/04/15 06:07:18;;;;;;;10.98;3.28;;;19.00;64.40;;;;;;6299169;22;19999;-69
2022/04/15 06:09:45;;;;;;;10.73;2.42;;;19.00;64.50;;;;;;6297343;22;20007;-68
2022/04/15 06:12:11;;;;;;;9.20;4.30;;;19.00;64.50;;;;;;6299898;22;20003;-68
2022/04/15 06:14:38;;;;;;;8.82;4.55;;;19.00;64.60;;;;;;6298347;22;20314;-68
2022/04/15 06:17:05;;;;;;;13.15;4.22;;;19.00;64.60;;;;;;6298672;22;20003;-67
2022/04/15 06:19:31;;;;;;;52.85;5.65;;;19.00;64.80;;;;;;6299145;22;20003;-69
2022/04/15 06:21:58;;;;;;;12.65;3.05;;;19.10;65.00;;;;;;6297627;22;20018;-70
2022/04/15 06:24:25;;;;;;;13.55;2.53;;;19.10;65.40;;;;;;6296235;22;20003;-70
2022/04/15 06:26:52;;;;;;;14.75;2.80;;;19.10;65.30;;;;;;6295451;22;20010;-69
2022/04/15 06:29:18;;;;;;;10.82;2.47;;;19.10;65.30;;;;;;6299061;22;20007;-69
2022/04/15 06:31:45;;;;;;;12.35;2.70;;;19.10;65.40;;;;;;6298436;22;20007;-70
2022/04/15 06:34:11;;;;;;;8.13;3.03;;;19.10;65.30;;;;;;6300248;22;20561;-69
2022/04/15 06:36:38;;;;;;;12.48;2.65;;;19.10;65.40;;;;;;6297922;22;20000;-69
2022/04/15 06:39:04;;;;;;;8.90;3.85;;;19.10;65.40;;;;;;6298889;22;20002;-71
2022/04/15 06:41:31;;;;;;;6.38;1.92;;;19.20;65.20;;;;;;6298226;22;20003;-71
2022/04/15 06:43:57;;;;;;;5.97;1.60;;;19.20;64.50;;;;;;6297932;22;20067;-71
2022/04/15 06:46:23;;;;;;;8.90;1.73;;;19.20;64.20;;;;;;6299894;22;20464;-70
2022/04/15 06:48:50;;;;;;;6.10;2.08;;;19.20;64.10;;;;;;6297840;22;20007;-71
2022/04/15 06:51:17;;;;;;;5.57;1.45;;;19.20;63.60;;;;;;6299269;22;20003;-70
2022/04/15 06:53:43;;;;;;;8.95;1.63;;;19.20;63.20;;;;;;6297263;22;20476;-68
2022/04/15 06:56:10;;;;;;;10.55;1.30;;;19.30;63.00;;;;;;6298921;22;19995;-70
2022/04/15 06:58:37;;;;;;;15.43;1.92;;;19.30;62.00;;;;;;6298358;22;20077;-70
2022/04/15 07:01:04;;;;;;;13.02;2.85;;;19.30;61.30;;;;;;6297992;22;20022;-71
2022/04/15 07:03:30;;;;;;;26.48;7.63;;;19.30;61.30;;;;;;6299776;22;20018;-72
2022/04/15 07:05:57;;;;;;;20.33;4.30;;;19.40;61.40;;;;;;6270440;22;20456;-70
2022/04/15 07:08:23;;;;;;;33.38;3.53;;;19.40;61.30;;;;;;6299494;22;20036;-69
2022/04/15 07:10:50;;;;;;;8.95;2.92;;;19.40;60.70;;;;;;6298440;22;20026;-69
2022/04/15 07:13:16;;;;;;;9.95;2.40;;;19.40;60.50;;;;;;6300866;22;19995;-71
2022/04/15 07:15:43;;;;;;;10.68;2.22;;;19.40;60.20;;;;;;6299268;22;19996;-70
2022/04/15 07:18:51;;;;;;;11.73;1.90;;;19.50;60.10;;;;;;6299336;22;20019;-70
2022/04/15 07:21:58;;;;;;;9.70;2.53;;;19.50;60.20;;;;;;6300170;22;20330;-68
2022/04/15 07:25:04;;;;;;;11.20;4.13;;;19.50;60.10;;;;;;6298637;22;20015;-70
2022/04/15 07:28:10;;;;;;;12.90;2.95;;;19.50;60.00;;;;;;6297264;22;20005;-70
2022/04/15 07:31:16;;;;;;;10.55;2.30;;;19.50;59.80;;;;;;6300008;22;20003;-69
2022/04/15 07:34:22;;;;;;;5.40;2.10;;;19.50;59.80;;;;;;6299702;22;20648;-70
2022/04/15 07:37:28;;;;;;;7.00;2.97;;;19.60;59.90;;;;;;6298640;22;20000;-68
2022/04/15 07:40:34;;;;;;;15.60;2.42;;;19.60;59.40;;;;;;6299535;22;19995;-67
2022/04/15 07:43:40;;;;;;;11.80;2.42;;;19.60;58.90;;;;;;6297533;22;20018;-69
2022/04/15 07:46:46;;;;;;;20.00;5.43;;;19.60;58.50;;;;;;6298805;22;19999;-69
2022/04/15 07:49:52;;;;;;;9.77;2.88;;;19.60;58.00;;;;;;6299145;22;19999;-68
2022/04/15 07:52:58;;;;;;;7.15;2.47;;;19.70;57.50;;;;;;6301745;22;20905;-69
2022/04/15 07:55:26;;;;;;;8.05;2.05;;;19.70;57.30;;;;;;6300770;22;20033;-69
2022/04/15 07:57:53;;;;;;;23.00;2.83;;;19.70;56.70;;;;;;6299961;22;20315;-69
2022/04/15 08:00:20;;;;;;;11.15;2.47;;;19.70;56.50;;;;;;6301548;22;20068;-69
2022/04/15 08:02:47;;;;;;;4.43;1.52;;;19.70;56.10;;;;;;6300172;22;20019;-69
2022/04/15 08:05:13;;;;;;;5.78;2.80;;;19.80;55.80;;;;;;6301546;22;20007;-68
2022/04/15 08:07:40;;;;;;;5.20;1.85;;;19.80;56.00;;;;;;6300906;22;20446;-70
2022/04/15 08:10:07;;;;;;;5.72;2.20;;;19.80;55.70;;;;;;6302218;22;20341;-70
2022/04/15 08:12:34;;;;;;;12.00;2.15;;;19.80;55.30;;;;;;6302720;22;20010;-69
2022/04/15 08:15:01;;;;;;;11.40;1.60;;;19.80;54.90;;;;;;6301273;22;20422;-68
2022/04/15 08:17:29;;;;;;;15.98;3.28;;;19.90;54.50;;;;;;6303072;22;20442;-69
2022/04/15 08:19:55;;;;;;;18.20;6.20;;;19.90;54.20;;;;;;6301232;22;20000;-69
2022/04/15 08:22:22;;;;;;;18.77;8.07;;;19.90;54.00;;;;;;6302599;22;20118;-72
2022/04/15 08:24:48;;;;;;;11.32;3.63;;;19.90;54.80;;;;;;6301438;22;20030;-69
2022/04/15 08:27:15;;;;;;;9.70;2.97;;;20.00;54.20;;;;;;6303132;22;20491;-69
2022/04/15 08:29:42;;;;;;;8.75;2.45;;;19.90;53.90;;;;;;6302668;22;20038;-70
2022/04/15 08:32:10;;;;;;;8.23;2.47;;;20.00;53.90;;;;;;6302592;22;20027;-70
2022/04/15 08:34:37;;;;;;;10.75;2.25;;;20.00;53.80;;;;;;6302523;22;20058;-70
2022/04/15 08:37:05;;;;;;;9.40;1.92;;;20.00;53.70;;;;;;6301365;22;20007;-70
2022/04/15 08:39:32;;;;;;;14.20;2.13;;;20.10;53.70;;;;;;6302087;22;20078;-70
2022/04/15 08:41:59;;;;;;;11.50;2.55;;;20.10;53.50;;;;;;6301707;22;20003;-71
2022/04/15 08:44:26;;;;;;;15.38;2.72;;;20.10;54.00;;;;;;6303239;22;20003;-70
2022/04/15 08:46:53;;;;;;;10.07;3.22;;;20.10;53.30;;;;;;6300957;22;20003;-71
2022/04/15 08:49:22;;;;;;;32.08;4.55;;;20.10;53.40;;;;;;6301174;22;19988;-69
2022/04/15 08:51:50;;;;;;;14.77;2.63;;;20.20;53.10;;;;;;6302436;22;20039;-73
2022/04/15 08:54:18;;;;;;;26.52;4.72;;;20.20;53.10;;;;;;6300240;22;20002;-71
2022/04/15 08:56:45;;;;;;;10.65;3.17;;;20.20;52.80;;;;;;6302396;22;20069;-71
2022/04/15 08:59:11;;;;;;;10.45;2.17;;;20.20;52.80;;;;;;6300709;22;20004;-68
2022/04/15 09:01:38;;;;;;;14.75;5.93;;;20.20;52.50;;;;;;6302226;22;20128;-71
2022/04/15 09:04:05;;;;;;;18.52;4.43;;;20.30;52.60;;;;;;6301265;22;20015;-70
2022/04/15 09:06:31;;;;;;;9.70;3.08;;;20.30;52.70;;;;;;6302082;22;20010;-70
2022/04/15 09:08:59;;;;;;;9.02;2.28;;;20.30;52.10;;;;;;6302608;22;20010;-70
2022/04/15 09:11:36;;;;;;;7.95;1.85;;;20.40;51.80;;;;;;6300964;22;20011;-68
2022/04/15 09:14:14;;;;;;;12.32;2.30;;;20.40;51.80;;;;;;6302464;22;20084;-71
2022/04/15 09:16:42;;;;;;;5.97;1.52;;;20.40;51.70;;;;;;6300699;22;20015;-71
2022/04/15 09:19:11;;;;;;;8.95;1.88;;;20.50;51.80;;;;;;6302342;22;19992;-70
2022/04/15 09:21:39;;;;;;;6.07;1.60;;;20.50;51.50;;;;;;6302387;22;20338;-70
2022/04/15 09:24:11;;;;;;;8.60;2.50;;;20.50;51.00;;;;;;6301497;22;20102;-70
2022/04/15 09:26:38;;;;;;;17.80;2.38;;;20.50;50.30;;;;;;6302641;22;20010;-71
2022/04/15 09:29:04;;;;;;;9.02;2.30;;;20.50;50.10;;;;;;6300817;22;20002;-70
2022/04/15 09:31:31;;;;;;;11.18;2.58;;;20.60;50.10;;;;;;6302537;22;20415;-72
2022/04/15 09:34:01;;;;;;;11.20;2.28;;;20.60;50.50;;;;;;6300899;22;20010;-71
2022/04/15 09:37:10;;;;;;;9.95;2.28;;;20.60;50.10;;;;;;6302147;22;20007;-70
2022/04/15 09:40:28;;;;;;;16.58;3.28;;;20.70;50.30;;;;;;6302511;22;20026;-70
2022/04/15 09:43:34;;;;;;;10.20;2.35;;;20.70;49.90;;;;;;6300362;22;20007;-69
2022/04/15 09:46:40;;;;;;;12.13;2.33;;;20.80;50.60;;;;;;6298675;22;20083;-69
2022/04/15 09:49:46;;;;;;;13.30;1.75;;;20.80;50.30;;;;;;6301852;22;19995;-70
2022/04/15 09:52:53;;;;;;;19.42;2.20;;;20.90;49.70;;;;;;6301649;22;20035;-69
2022/04/15 09:56:01;;;;;;;7.35;1.88;;;21.00;48.90;;;;;;6300566;22;20343;-69
2022/04/15 09:59:08;;;;;;;13.40;2.10;;;21.00;49.30;;;;;;6301131;22;20064;-68
2022/04/15 10:01:41;;;;;;;39.22;5.15;;;21.10;49.60;;;;;;6301606;22;20011;-69
2022/04/15 10:04:10;;;;;;;57.95;5.93;;;21.20;49.40;;;;;;6299621;22;20064;-70
2022/04/15 10:06:39;;;;;;;24.45;3.88;;;21.30;50.00;;;;;;6300867;22;20437;-70
2022/04/15 10:09:09;;;;;;;16.98;3.63;;;21.30;49.80;;;;;;6301424;22;19999;-69
2022/04/15 10:11:37;;;;;;;12.98;1.98;;;21.30;49.70;;;;;;6301320;22;19999;-67
2022/04/15 10:14:04;;;;;;;22.80;3.85;;;21.40;49.40;;;;;;6301747;22;20022;-70
2022/04/15 10:16:32;;;;;;;34.83;4.78;;;21.50;47.60;;;;;;6301325;22;20327;-69
2022/04/15 10:19:02;;;;;;;8.60;2.70;;;21.50;47.80;;;;;;6301824;22;20022;-69
2022/04/15 10:21:35;;;;;;;14.82;2.78;;;21.50;47.70;;;;;;6300301;22;20006;-70
2022/04/15 10:24:03;;;;;;;11.10;2.20;;;21.50;47.40;;;;;;6299910;22;20011;-69
2022/04/15 10:27:00;;;;;;;10.38;1.90;;;21.50;47.40;;;;;;6299661;22;20006;-72
2022/04/15 10:29:26;;;;;;;22.80;2.80;;;21.50;47.40;;;;;;6298144;22;20003;-71
2022/04/15 10:31:53;;;;;;;11.30;2.15;;;21.50;47.50;;;;;;6274579;22;20318;-71
2022/04/15 10:34:21;;;;;;;13.95;2.58;;;21.60;47.60;;;;;;6299835;22;20322;-71
2022/04/15 10:36:56;;;;;;;11.38;1.90;;;21.60;47.50;;;;;;6302102;22;20000;-70
2022/04/15 10:39:25;;;;;;;;;;;21.60;47.50;;;;;;6300814;22;20014;-69
2022/04/15 10:41:52;;;;;;;8.73;2.13;;;21.70;47.60;;;;;;6299065;22;19895;-69
2022/04/15 10:44:26;;;;;;;5.90;2.58;;;21.70;47.30;;;;;;6299738;22;19999;-69
2022/04/15 10:46:56;;;;;;;8.47;2.10;;;21.80;47.50;;;;;;6298659;22;20004;-72
2022/04/15 10:49:26;;;;;;;6.47;1.95;;;21.80;47.50;;;;;;6299968;22;20224;-71
2022/04/15 10:52:15;;;;;;;11.80;2.30;;;21.90;47.40;;;;;;6298393;22;20074;-70
2022/04/15 10:54:46;;;;;;;8.85;2.28;;;21.90;47.00;;;;;;6299722;22;19995;-72
2022/04/15 10:57:18;;;;;;;9.05;2.20;;;21.90;46.70;;;;;;6299908;22;20031;-69
2022/04/15 11:03:22;;;;;;;12.00;2.42;;;22.00;46.40;;;;;;6298970;22;20069;-70
2022/04/15 11:05:50;;;;;;;5.32;2.28;;;22.00;46.60;;;;;;6271390;22;20007;-69
2022/04/15 11:08:21;;;;;;;6.53;1.70;;;22.10;46.50;;;;;;6298960;22;20636;-69
2022/04/15 11:11:03;;;;;;;11.82;2.20;;;22.10;46.40;;;;;;6299385;22;20015;-69
2022/04/15 11:13:39;;;;;;;11.90;1.58;;;22.20;46.50;;;;;;6298456;22;20007;-71
2022/04/15 11:16:16;;;;;;;6.35;1.75;;;22.20;46.30;;;;;;6299426;22;20069;-70
2022/04/15 11:19:02;;;;;;;12.38;5.28;;;22.20;45.90;;;;;;6296965;22;20037;-70
2022/04/15 11:21:39;;;;;;;10.32;3.08;;;22.20;45.30;;;;;;6298026;22;20007;-70
2022/04/15 11:24:08;;;;;;;8.40;2.72;;;22.30;45.90;;;;;;6299767;22;20091;-70
2022/04/15 11:26:37;;;;;;;10.07;2.40;;;22.30;45.90;;;;;;6298476;22;20462;-70
2022/04/15 11:29:11;;;;;;;7.95;1.55;;;22.30;45.60;;;;;;6299853;22;20003;-67
2022/04/15 11:31:40;;;;;;;22.92;2.47;;;22.30;45.70;;;;;;6299252;22;19996;-70
2022/04/15 11:34:52;;;;;;;15.18;8.77;;;22.40;45.50;;;;;;6299904;22;20004;-69
2022/04/15 11:37:19;;;;;;;11.27;3.95;;;22.40;45.60;;;;;;6299804;22;20011;-70
2022/04/15 11:39:47;;;;;;;10.05;2.92;;;22.50;44.90;;;;;;6299046;22;19995;-70
2022/04/15 11:42:17;;;;;;;8.95;2.20;;;22.50;45.20;;;;;;6299452;22;20038;-72
2022/04/15 11:44:43;;;;;;;9.10;2.17;;;22.50;45.10;;;;;;6298239;22;20003;-70
2022/04/15 11:47:16;;;;;;;5.93;2.08;;;22.50;45.20;;;;;;6300522;22;20034;-71
2022/04/15 11:49:43;;;;;;;7.85;2.08;;;22.60;45.10;;;;;;6299432;22;20003;-70
2022/04/15 11:52:11;;;;;;;6.28;1.35;;;22.60;44.90;;;;;;6298198;22;20011;-71
2022/04/15 11:54:38;;;;;;;12.20;2.03;;;22.60;44.60;;;;;;6298962;22;20446;-69
2022/04/15 11:57:07;;;;;;;6.00;1.88;;;22.60;44.70;;;;;;6299199;22;20004;-69
2022/04/15 11:59:41;;;;;;;4.60;1.40;;;22.60;44.50;;;;;;6301063;22;20006;-70
2022/04/15 12:02:09;;;;;;;13.13;1.80;;;22.70;44.40;;;;;;6266725;22;20062;-69
2022/04/15 12:04:36;;;;;;;3.13;1.30;;;22.70;44.30;;;;;;6268091;22;19992;-70
2022/04/15 12:07:32;;;;;;;4.13;1.48;;;22.70;44.20;;;;;;6267795;22;20006;-70
2022/04/15 12:10:04;;;;;;;6.22;1.40;;;22.70;44.20;;;;;;6268304;22;20449;-71
2022/04/15 12:12:31;;;;;;;16.45;3.05;;;22.80;43.90;;;;;;6268682;22;20000;-71
2022/04/15 12:15:01;;;;;;;19.10;7.20;;;22.80;43.90;;;;;;6266591;22;20450;-71
2022/04/15 12:17:29;;;;;;;19.08;4.88;;;22.80;44.30;;;;;;6269784;22;20008;-69
2022/04/15 12:19:55;;;;;;;9.98;2.90;;;22.80;44.30;;;;;;6269797;22;20003;-69
2022/04/15 12:22:23;;;;;;;10.27;3.03;;;22.80;43.90;;;;;;6271224;22;20012;-69
2022/04/15 12:24:50;;;;;;;4.68;1.83;;;22.90;43.40;;;;;;6271703;22;19999;-70
2022/04/15 12:27:18;;;;;;;6.68;1.52;;;22.90;43.50;;;;;;6271195;22;19999;-71
2022/04/15 12:29:51;;;;;;;6.28;1.50;;;22.90;43.40;;;;;;6272448;22;20010;-71
2022/04/15 12:32:38;;;;;;;9.32;1.80;;;22.90;43.10;;;;;;6270053;22;20006;-70
2022/04/15 12:35:13;;;;;;;4.03;1.33;;;22.90;43.00;;;;;;6271455;22;20011;-69
2022/04/15 12:37:47;;;;;;;13.52;3.60;;;22.90;42.70;;;;;;6271417;22;20073;-71
2022/04/15 12:40:14;;;;;;;18.52;5.80;;;22.90;42.40;;;;;;6271459;22;20010;-70
2022/04/15 12:43:29;;;;;;;18.55;3.72;;;22.90;42.10;;;;;;6271647;22;20018;-71
2022/04/15 12:46:36;;;;;;;17.58;4.30;;;22.90;42.00;;;;;;6269702;22;20378;-72
2022/04/15 12:49:44;;;;;;;12.63;1.80;;;22.90;41.80;;;;;;6271128;22;20012;-70
2022/04/15 12:52:50;;;;;;;6.38;1.92;;;22.90;41.60;;;;;;6271032;22;20041;-73
2022/04/15 12:56:06;;;;;;;8.48;1.52;;;22.90;41.40;;;;;;6270082;22;20327;-70
2022/04/15 12:59:12;;;;;;;5.07;1.67;;;22.90;41.10;;;;;;6267707;22;20910;-70
2022/04/15 13:01:39;;;;;;;5.93;1.40;;;22.90;41.10;;;;;;6293539;22;20032;-68
2022/04/15 13:04:17;;;;;;;8.98;2.55;;;22.90;41.00;;;;;;6300740;22;20090;-70
2022/04/15 13:06:43;;;;;;;8.57;4.30;;;22.90;40.90;;;;;;6299519;22;19999;-70
2022/04/15 13:09:10;;;;;;;10.65;3.35;;;22.90;40.60;;;;;;6300474;22;20006;-71
2022/04/15 13:11:44;;;;;;;7.63;1.67;;;22.90;40.60;;;;;;6299685;22;20054;-71
2022/04/15 13:14:10;;;;;;;6.80;1.83;;;22.90;40.40;;;;;;6300653;22;20047;-71
2022/04/15 13:16:38;;;;;;;7.78;1.50;;;22.90;40.60;;;;;;6298236;22;20330;-70
2022/04/15 13:19:07;;;;;;;7.53;1.40;;;22.90;40.50;;;;;;6298975;22;20422;-69
2022/04/15 13:21:34;;;;;;;3.58;1.02;;;22.90;40.50;;;;;;6298664;22;20094;-70
2022/04/15 13:24:01;;;;;;;4.72;1.58;;;22.90;40.50;;;;;;6297226;22;20051;-70
2022/04/15 13:26:28;;;;;;;6.18;1.30;;;22.90;40.50;;;;;;6298627;22;20369;-70
2022/04/15 13:28:54;;;;;;;6.75;1.70;;;22.90;40.60;;;;;;6297085;22;20006;-70
2022/04/15 13:31:26;;;;;;;3.80;2.10;;;22.80;40.60;;;;;;6299011;22;20022;-70
2022/04/15 13:33:53;;;;;;;6.97;1.88;;;22.80;40.80;;;;;;6297166;22;20021;-69
2022/04/15 13:36:22;;;;;;;7.32;1.60;;;22.80;40.90;;;;;;6298926;22;20311;-70
2022/04/15 13:39:28;;;;;;;3.72;1.60;;;22.80;40.90;;;;;;6297889;22;20031;-72
2022/04/15 13:41:54;;;;;;;4.72;1.27;;;22.80;40.90;;;;;;6298449;22;20003;-70
2022/04/15 13:44:21;;;;;;;3.78;1.30;;;22.80;40.80;;;;;;6300106;22;20315;-71
2022/04/15 13:46:47;;;;;;;4.03;1.40;;;22.80;40.90;;;;;;6299186;22;20513;-70
2022/04/15 13:49:14;;;;;;;5.57;2.05;;;22.80;41.00;;;;;;6300639;22;20338;-71
2022/04/15 13:51:40;;;;;;;9.48;2.10;;;22.70;41.10;;;;;;6300467;22;20490;-71
2022/04/15 13:56:52;;;;;;;9.63;3.40;;;22.70;41.30;;;;;;6302025;22;20022;-71
2022/04/15 13:59:19;;;;;;;7.32;1.85;;;22.80;41.40;;;;;;6300505;22;20349;-71
2022/04/15 14:01:46;;;;;;;3.42;1.88;;;22.80;41.50;;;;;;6302261;22;20022;-73
2022/04/15 14:04:15;;;;;;;11.93;5.13;;;22.80;41.70;;;;;;6300334;22;20020;-72
2022/04/15 14:06:46;;;;;;;7.05;2.63;;;22.80;42.00;;;;;;6302293;22;20381;-72
2022/04/15 14:09:14;;;;;;;6.60;2.40;;;22.80;42.20;;;;;;6301673;22;20061;-71
2022/04/15 14:11:44;;;;;;;9.48;2.40;;;22.80;42.40;;;;;;6301779;22;19999;-72
2022/04/15 14:14:15;;;;;;;7.22;2.20;;;22.70;42.30;;;;;;6302864;22;19999;-71
2022/04/15 14:16:43;;;;;;;8.00;2.17;;;22.80;42.30;;;;;;6300517;22;19999;-73
2022/04/15 14:19:11;;;;;;;7.05;1.80;;;22.70;42.40;;;;;;6302217;22;20512;-72
2022/04/15 14:21:40;;;;;;;8.57;2.15;;;22.70;42.50;;;;;;6300140;22;20007;-72
2022/04/15 14:24:08;;;;;;;6.05;1.70;;;22.70;42.50;;;;;;6302285;22;20007;-72
2022/04/15 14:26:35;;;;;;;7.47;1.77;;;22.70;42.80;;;;;;6301030;22;20090;-72
2022/04/15 14:29:03;;;;;;;5.43;1.85;;;22.70;42.70;;;;;;6301572;22;19992;-71
2022/04/15 14:31:29;;;;;;;3.20;1.60;;;22.70;42.90;;;;;;6301809;22;20074;-71
2022/04/15 14:33:56;;;;;;;7.78;1.80;;;22.60;43.00;;;;;;6300430;22;20007;-72
2022/04/15 14:37:03;;;;;;;10.20;3.28;;;22.60;42.90;;;;;;6302013;22;20438;-70
2022/04/15 14:40:10;;;;;;;10.30;2.20;;;22.60;42.00;;;;;;6273750;22;20010;-72
2022/04/15 14:43:16;;;;;;;6.88;1.65;;;22.60;42.30;;;;;;6300077;22;20474;-71
2022/04/15 14:46:22;;;;;;;8.38;1.63;;;22.50;42.70;;;;;;6299820;22;20003;-71
2022/04/15 14:49:28;;;;;;;14.77;2.45;;;22.50;42.50;;;;;;6272296;22;20441;-70
2022/04/15 14:51:55;;;;;;;8.13;2.20;;;22.50;42.40;;;;;;6297942;22;20006;-70
2022/04/15 14:54:21;;;;;;;8.80;2.35;;;22.40;42.50;;;;;;6299243;22;20048;-71
2022/04/15 14:56:51;;;;;;;18.25;3.38;;;22.40;43.10;;;;;;6298560;22;19996;-71
2022/04/15 14:59:17;;;;;;;12.77;4.45;;;22.40;42.90;;;;;;6296705;22;20060;-71
2022/04/15 15:01:44;;;;;;;10.65;5.13;;;22.40;43.00;;;;;;6269226;22;20529;-71
2022/04/15 15:04:10;;;;;;;131.65;117.45;;;22.30;42.80;;;;;;6296576;22;20486;-72
2022/04/15 15:06:37;;;;;;;50.42;42.60;;;22.30;42.50;;;;;;6297825;22;20030;-73
2022/04/15 15:09:03;;;;;;;52.13;34.60;;;22.20;42.80;;;;;;6295929;22;20000;-71
2022/04/15 15:11:31;;;;;;;22.90;16.42;;;22.20;43.00;;;;;;6297649;22;20007;-71
2022/04/15 15:13:58;;;;;;;23.08;13.30;;;22.20;42.90;;;;;;6296699;22;20003;-70
2022/04/15 15:16:25;;;;;;;9.80;7.13;;;22.20;42.70;;;;;;6299189;22;20114;-70
2022/04/15 15:18:51;;;;;;;9.40;5.75;;;22.20;41.90;;;;;;6298713;22;20564;-72
2022/04/15 15:21:18;;;;;;;23.48;15.10;;;22.20;42.30;;;;;;6298638;22;20004;-71
2022/04/15 15:31:59;;;;;;;21.00;9.83;;;22.10;43.30;;;;;;6299332;22;20064;-72
2022/04/15 15:34:26;;;;;;;31.17;10.85;;;22.10;43.70;;;;;;6297607;22;19996;-70
2022/04/15 15:36:52;;;;;;;31.17;10.18;;;22.10;44.00;;;;;;6299044;22;20008;-71
2022/04/15 15:39:18;;;;;;;19.77;8.82;;;22.10;44.40;;;;;;6297768;22;20447;-71
2022/04/15 15:42:25;;;;;;;21.33;6.80;;;22.10;44.60;;;;;;6299459;22;20446;-70
2022/04/15 15:45:32;;;;;;;18.27;6.70;;;22.10;44.60;;;;;;6300067;22;20003;-71
2022/04/15 15:48:38;;;;;;;15.43;5.88;;;22.10;44.90;;;;;;6298308;22;20003;-70
2022/04/15 15:51:05;;;;;;;13.63;5.38;;;22.00;44.80;;;;;;6300054;22;20066;-70
2022/04/15 15:53:33;;;;;;;15.48;7.53;;;22.00;44.90;;;;;;6300918;22;20006;-71
2022/04/15 15:55:59;;;;;;;22.77;9.82;;;22.00;45.10;;;;;;6300774;22;20383;-70
2022/04/15 15:58:26;;;;;;;12.13;6.88;;;21.90;45.20;;;;;;6301056;22;20003;-71
2022/04/15 16:00:52;;;;;;;18.25;9.13;;;21.90;45.30;;;;;;6300022;22;20076;-70
2022/04/15 16:03:19;;;;;;;16.30;9.77;;;21.90;45.30;;;;;;6301341;22;20504;-71
2022/04/15 16:05:47;;;;;;;33.72;16.38;;;21.80;45.40;;;;;;6298392;22;20137;-71
2022/04/15 16:08:53;;;;;;;24.17;12.40;;;21.80;45.40;;;;;;6299664;22;20003;-71
2022/04/15 16:11:19;;;;;;;28.40;9.38;;;21.80;45.80;;;;;;6303198;22;20000;-70
2022/04/15 16:13:46;;;;;;;13.00;6.93;;;21.70;45.90;;;;;;6301973;22;19999;-70
2022/04/15 16:16:13;;;;;;;30.88;13.05;;;21.70;45.70;;;;;;6303787;22;20014;-72
2022/04/15 16:18:39;;;;;;;13.60;5.38;;;21.70;45.50;;;;;;6302128;22;20050;-71
2022/04/15 16:21:05;;;;;;;7.18;4.13;;;21.70;44.70;;;;;;6303592;22;20026;-70
2022/04/15 16:23:32;;;;;;;9.43;4.95;;;21.60;43.40;;;;;;6298787;22;20019;-70
2022/04/15 16:25:59;;;;;;;21.98;5.35;;;21.60;43.80;;;;;;6302076;22;19999;-71
2022/04/15 16:28:25;;;;;;;9.52;4.00;;;21.60;42.10;;;;;;6302953;22;20004;-71
2022/04/15 16:30:51;;;;;;;8.98;4.03;;;21.50;41.80;;;;;;6302028;22;20067;-71
2022/04/15 16:33:19;;;;;;;31.17;18.90;;;21.50;41.80;;;;;;6303186;22;20003;-70
2022/04/15 16:35:46;;;;;;;16.48;10.65;;;21.50;41.90;;;;;;6301442;22;20038;-71
2022/04/15 16:38:13;;;;;;;14.18;8.10;;;21.40;41.90;;;;;;6303297;22;20003;-74
2022/04/15 16:40:40;;;;;;;16.55;7.88;;;21.40;41.80;;;;;;6301420;22;20003;-75
2022/04/15 16:43:06;;;;;;;17.20;8.20;;;21.40;42.00;;;;;;6302730;22;20011;-75
2022/04/15 16:45:33;;;;;;;38.50;26.25;;;21.30;42.10;;;;;;6302034;22;19999;-75
2022/04/15 16:48:01;;;;;;;28.65;17.65;;;21.30;42.20;;;;;;6302522;22;20003;-74
2022/04/15 16:50:27;;;;;;;32.92;24.00;;;21.30;42.40;;;;;;6302638;22;20056;-72
2022/04/15 16:52:55;;;;;;;49.63;39.67;;;21.30;42.40;;;;;;6274152;22;20322;-71
2022/04/15 17:00:51;;;;;;;18.77;8.00;;;21.20;42.50;;;;;;6301563;22;20072;-71
2022/04/15 17:03:18;;;;;;;9.30;5.53;;;21.10;42.30;;;;;;6301665;22;20011;-72
2022/04/15 17:05:44;;;;;;;6.32;3.60;;;21.10;42.50;;;;;;6299821;22;20003;-73
2022/04/15 17:08:11;;;;;;;7.60;3.13;;;21.10;42.60;;;;;;6302093;22;20094;-72
2022/04/15 17:10:37;;;;;;;5.13;2.10;;;21.10;42.60;;;;;;6301636;22;20027;-71
2022/04/15 17:13:25;;;;;;;7.20;2.42;;;21.00;42.50;;;;;;6300777;22;20107;-72
2022/04/15 17:15:54;;;;;;;18.95;2.28;;;21.00;42.60;;;;;;6272671;22;20004;-73
2022/04/15 17:18:21;;;;;;;12.98;2.90;;;21.00;42.90;;;;;;6300179;22;20003;-73
2022/04/15 17:20:48;;;;;;;14.23;2.65;;;20.90;43.10;;;;;;6301444;22;20003;-73
2022/04/15 17:23:15;;;;;;;11.35;2.60;;;20.90;43.20;;;;;;6299102;22;20011;-72
2022/04/15 17:25:43;;;;;;;195.52;173.90;;;20.90;43.20;;;;;;6302774;22;20022;-74
2022/04/15 17:28:09;;;;;;;106.90;87.40;;;20.90;43.30;;;;;;6299129;22;20031;-73
2022/04/15 17:30:39;;;;;;;45.00;35.95;;;20.80;43.80;;;;;;6299807;22;20038;-71
2022/04/15 17:33:07;;;;;;;23.70;16.35;;;20.80;43.20;;;;;;6297589;22;20010;-70
2022/04/15 17:35:33;;;;;;;12.77;9.05;;;20.80;43.10;;;;;;6300003;22;20000;-70
2022/04/15 17:38:09;;;;;;;10.15;5.32;;;20.80;43.30;;;;;;6301226;22;20098;-70
2022/04/15 17:40:36;;;;;;;21.85;3.60;;;20.80;43.40;;;;;;6299397;22;19988;-71
2022/04/15 17:43:03;;;;;;;13.45;3.17;;;20.80;43.80;;;;;;6300735;22;20350;-70
2022/04/15 17:45:43;;;;;;;9.35;2.40;;;20.70;43.90;;;;;;6299563;22;20102;-70
2022/04/15 17:48:10;;;;;;;3.78;2.00;;;20.70;44.40;;;;;;6301281;22;20003;-70
2022/04/15 17:50:37;;;;;;;9.85;2.03;;;20.70;44.80;;;;;;6298749;22;20442;-71